N313QZ KBTR-KJNX
Flight info
| Callsign | N313QZ |
|---|---|
| Flight time | 2h 6m |
| Altitude | 35000 |
| Route | OYSTY Q22 CATLN Q64 IDDAA WITIX |
| Aircraft | STAR/L-SCDFGHRWY/LB1 |
Departure
| Time | 2026-05-07 22:16 |
|---|---|
| Airport | Baton Rouge Metropolitan Airport (KBTR) |
Arrival
| Time | 2026-05-08 00:22 |
|---|---|
| Airport | Johnston Regional Airport (KJNX) |
| Time | Latitude | Longitude | Altitude | Speed | Heading |
|---|---|---|---|---|---|
| 2026-05-07 21:53 | 30.53076 | -91.14548 | 73 ft | 0 kts | 206° |
| 2026-05-07 22:10 | 30.53073 | -91.14550 | 73 ft | 5 kts | 205° |
| 2026-05-07 22:11 | 30.53057 | -91.14557 | 69 ft | 0 kts | 198° |
| 2026-05-07 22:11 | 30.53054 | -91.14573 | 70 ft | 8 kts | 304° |
| 2026-05-07 22:11 | 30.53106 | -91.14594 | 68 ft | 1 kts | 354° |
| 2026-05-07 22:11 | 30.53095 | -91.14650 | 72 ft | 19 kts | 225° |
| 2026-05-07 22:12 | 30.53087 | -91.14717 | 70 ft | 13 kts | 326° |
| 2026-05-07 22:12 | 30.53208 | -91.14812 | 72 ft | 28 kts | 321° |
| 2026-05-07 22:12 | 30.53231 | -91.14834 | 73 ft | 12 kts | 305° |
| 2026-05-07 22:12 | 30.53346 | -91.14905 | 73 ft | 25 kts | 1° |
| 2026-05-07 22:13 | 30.53507 | -91.14774 | 73 ft | 29 kts | 41° |
| 2026-05-07 22:13 | 30.53637 | -91.14632 | 73 ft | 23 kts | 43° |
| 2026-05-07 22:13 | 30.53744 | -91.14520 | 76 ft | 18 kts | 41° |
| 2026-05-07 22:13 | 30.53825 | -91.14427 | 73 ft | 15 kts | 45° |
| 2026-05-07 22:14 | 30.53897 | -91.14347 | 71 ft | 13 kts | 44° |
| 2026-05-07 22:14 | 30.53953 | -91.14278 | 73 ft | 10 kts | 50° |
| 2026-05-07 22:14 | 30.53991 | -91.14225 | 70 ft | 7 kts | 59° |
| 2026-05-07 22:14 | 30.53986 | -91.14167 | 73 ft | 11 kts | 132° |
| 2026-05-07 22:15 | 30.53879 | -91.14176 | 73 ft | 33 kts | 222° |
| 2026-05-07 22:15 | 30.53586 | -91.14517 | 74 ft | 82 kts | 224° |
| 2026-05-07 22:15 | 30.53045 | -91.15098 | 65 ft | 131 kts | 222° |
| 2026-05-07 22:15 | 30.52319 | -91.15842 | 385 ft | 152 kts | 221° |
| 2026-05-07 22:16 | 30.51453 | -91.16708 | 799 ft | 172 kts | 227° |
| 2026-05-07 22:16 | 30.50523 | -91.17615 | 1303 ft | 183 kts | 202° |
| 2026-05-07 22:16 | 30.49232 | -91.17692 | 1652 ft | 201 kts | 164° |
| 2026-05-07 22:16 | 30.47992 | -91.16757 | 1758 ft | 227 kts | 130° |
| 2026-05-07 22:17 | 30.47177 | -91.15163 | 2089 ft | 233 kts | 112° |
| 2026-05-07 22:17 | 30.46921 | -91.13351 | 2510 ft | 235 kts | 94° |
| 2026-05-07 22:17 | 30.46931 | -91.11403 | 2920 ft | 240 kts | 85° |
| 2026-05-07 22:17 | 30.47452 | -91.09557 | 3304 ft | 245 kts | 61° |
| 2026-05-07 22:18 | 30.48111 | -91.07728 | 3676 ft | 248 kts | 75° |
| 2026-05-07 22:18 | 30.48495 | -91.03766 | 4546 ft | 252 kts | 89° |
| 2026-05-07 22:18 | 30.48529 | -91.01718 | 4971 ft | 254 kts | 90° |
| 2026-05-07 22:19 | 30.48540 | -90.99718 | 5387 ft | 256 kts | 91° |
| 2026-05-07 22:19 | 30.48546 | -90.97615 | 5832 ft | 257 kts | 90° |
| 2026-05-07 22:19 | 30.48501 | -90.95525 | 6288 ft | 258 kts | 95° |
| 2026-05-07 22:19 | 30.48420 | -90.93431 | 6695 ft | 261 kts | 91° |
| 2026-05-07 22:20 | 30.48423 | -90.91316 | 7124 ft | 263 kts | 92° |
| 2026-05-07 22:20 | 30.48378 | -90.89194 | 7559 ft | 264 kts | 93° |
| 2026-05-07 22:20 | 30.48339 | -90.87060 | 8006 ft | 266 kts | 92° |
| 2026-05-07 22:20 | 30.48315 | -90.84903 | 8430 ft | 269 kts | 92° |
| 2026-05-07 22:21 | 30.48274 | -90.82727 | 8885 ft | 270 kts | 92° |
| 2026-05-07 22:21 | 30.48237 | -90.80541 | 9330 ft | 272 kts | 92° |
| 2026-05-07 22:21 | 30.48204 | -90.78343 | 9784 ft | 274 kts | 92° |
| 2026-05-07 22:21 | 30.48165 | -90.76131 | 10216 ft | 275 kts | 92° |
| 2026-05-07 22:22 | 30.48128 | -90.73911 | 10630 ft | 277 kts | 93° |
| 2026-05-07 22:22 | 30.48089 | -90.71672 | 11073 ft | 278 kts | 93° |
| 2026-05-07 22:22 | 30.48051 | -90.69426 | 11504 ft | 279 kts | 93° |
| 2026-05-07 22:22 | 30.48010 | -90.67171 | 11948 ft | 281 kts | 93° |
| 2026-05-07 22:23 | 30.47971 | -90.64907 | 12408 ft | 282 kts | 94° |
| 2026-05-07 22:23 | 30.47930 | -90.62631 | 12859 ft | 283 kts | 93° |
| 2026-05-07 22:23 | 30.47889 | -90.60335 | 13320 ft | 285 kts | 93° |
| 2026-05-07 22:23 | 30.47847 | -90.58027 | 13769 ft | 287 kts | 94° |
| 2026-05-07 22:24 | 30.47804 | -90.55707 | 14197 ft | 289 kts | 94° |
| 2026-05-07 22:24 | 30.47761 | -90.53373 | 14583 ft | 292 kts | 94° |
| 2026-05-07 22:24 | 30.47717 | -90.51042 | 14992 ft | 293 kts | 94° |
| 2026-05-07 22:24 | 30.47672 | -90.48680 | 15391 ft | 295 kts | 95° |
| 2026-05-07 22:25 | 30.47627 | -90.46296 | 15782 ft | 298 kts | 95° |
| 2026-05-07 22:25 | 30.47580 | -90.43887 | 16215 ft | 299 kts | 95° |
| 2026-05-07 22:25 | 30.47533 | -90.41473 | 16612 ft | 301 kts | 95° |
| 2026-05-07 22:25 | 30.47485 | -90.39049 | 17038 ft | 302 kts | 96° |
| 2026-05-07 22:26 | 30.47436 | -90.36590 | 17456 ft | 305 kts | 96° |
| 2026-05-07 22:26 | 30.47387 | -90.34122 | 17879 ft | 306 kts | 96° |
| 2026-05-07 22:26 | 30.47338 | -90.31653 | 18311 ft | 308 kts | 96° |
| 2026-05-07 22:26 | 30.47285 | -90.29161 | 18674 ft | 310 kts | 96° |
| 2026-05-07 22:27 | 30.47234 | -90.26657 | 19055 ft | 311 kts | 96° |
| 2026-05-07 22:27 | 30.47183 | -90.24145 | 19420 ft | 313 kts | 96° |
| 2026-05-07 22:27 | 30.47129 | -90.21617 | 19766 ft | 315 kts | 95° |
| 2026-05-07 22:27 | 30.47277 | -90.19064 | 20137 ft | 319 kts | 84° |
| 2026-05-07 22:28 | 30.47813 | -90.16570 | 20474 ft | 321 kts | 71° |
| 2026-05-07 22:28 | 30.48539 | -90.14114 | 20825 ft | 322 kts | 71° |
| 2026-05-07 22:28 | 30.49153 | -90.11616 | 21196 ft | 323 kts | 75° |
| 2026-05-07 22:28 | 30.49791 | -90.09114 | 21535 ft | 325 kts | 71° |
| 2026-05-07 22:29 | 30.50449 | -90.06588 | 21900 ft | 326 kts | 73° |
| 2026-05-07 22:29 | 30.51079 | -90.04060 | 22249 ft | 328 kts | 72° |
| 2026-05-07 22:29 | 30.51736 | -90.01519 | 22591 ft | 329 kts | 72° |
| 2026-05-07 22:29 | 30.52382 | -89.98970 | 22949 ft | 330 kts | 72° |
| 2026-05-07 22:30 | 30.53030 | -89.96408 | 23300 ft | 331 kts | 71° |
| 2026-05-07 22:30 | 30.53686 | -89.93844 | 23615 ft | 333 kts | 71° |
| 2026-05-07 22:30 | 30.54339 | -89.91263 | 23910 ft | 333 kts | 71° |
| 2026-05-07 22:30 | 30.54994 | -89.88680 | 24198 ft | 334 kts | 71° |
| 2026-05-07 22:31 | 30.55651 | -89.86095 | 24470 ft | 335 kts | 71° |
| 2026-05-07 22:31 | 30.56299 | -89.83526 | 24731 ft | 336 kts | 71° |
| 2026-05-07 22:31 | 30.56957 | -89.80927 | 25032 ft | 336 kts | 71° |
| 2026-05-07 22:31 | 30.57618 | -89.78312 | 25308 ft | 337 kts | 71° |
| 2026-05-07 22:32 | 30.58273 | -89.75714 | 25564 ft | 338 kts | 71° |
| 2026-05-07 22:32 | 30.58942 | -89.73063 | 25841 ft | 338 kts | 71° |
| 2026-05-07 22:32 | 30.59596 | -89.70467 | 26122 ft | 338 kts | 71° |
| 2026-05-07 22:32 | 30.60264 | -89.67812 | 26386 ft | 340 kts | 71° |
| 2026-05-07 22:33 | 30.60925 | -89.65184 | 26637 ft | 341 kts | 71° |
| 2026-05-07 22:33 | 30.61579 | -89.62579 | 26910 ft | 340 kts | 71° |
| 2026-05-07 22:33 | 30.62242 | -89.59941 | 27171 ft | 341 kts | 71° |
| 2026-05-07 22:33 | 30.62908 | -89.57286 | 27415 ft | 342 kts | 71° |
| 2026-05-07 22:34 | 30.63571 | -89.54636 | 27649 ft | 344 kts | 71° |
| 2026-05-07 22:34 | 30.64239 | -89.51970 | 27920 ft | 343 kts | 71° |
| 2026-05-07 22:34 | 30.64905 | -89.49307 | 28165 ft | 344 kts | 71° |
| 2026-05-07 22:34 | 30.65357 | -89.47499 | 28319 ft | 345 kts | 71° |
| 2026-05-07 22:35 | 30.66243 | -89.43948 | 28617 ft | 346 kts | 71° |
| 2026-05-07 22:35 | 30.66914 | -89.41259 | 28850 ft | 346 kts | 71° |
| 2026-05-07 22:35 | 30.67583 | -89.38572 | 29071 ft | 347 kts | 71° |
| 2026-05-07 22:35 | 30.68027 | -89.36789 | 29199 ft | 347 kts | 71° |
| 2026-05-07 22:36 | 30.68696 | -89.34099 | 29383 ft | 349 kts | 71° |
| 2026-05-07 22:36 | 30.69372 | -89.31375 | 29572 ft | 350 kts | 71° |
| 2026-05-07 22:36 | 30.70049 | -89.28654 | 29751 ft | 350 kts | 71° |
| 2026-05-07 22:36 | 30.70730 | -89.25904 | 29978 ft | 350 kts | 71° |
| 2026-05-07 22:37 | 30.71394 | -89.23225 | 30144 ft | 350 kts | 71° |
| 2026-05-07 22:37 | 30.72067 | -89.20504 | 30282 ft | 351 kts | 71° |
| 2026-05-07 22:37 | 30.72742 | -89.17774 | 30425 ft | 351 kts | 71° |
| 2026-05-07 22:37 | 30.73416 | -89.15046 | 30560 ft | 352 kts | 71° |
| 2026-05-07 22:38 | 30.74091 | -89.12308 | 30687 ft | 353 kts | 71° |
| 2026-05-07 22:38 | 30.74766 | -89.09570 | 30874 ft | 351 kts | 71° |
| 2026-05-07 22:38 | 30.75439 | -89.06842 | 31015 ft | 351 kts | 71° |
| 2026-05-07 22:38 | 30.76110 | -89.04112 | 31152 ft | 351 kts | 71° |
| 2026-05-07 22:39 | 30.76782 | -89.01381 | 31275 ft | 351 kts | 71° |
| 2026-05-07 22:39 | 30.77452 | -88.98650 | 31390 ft | 352 kts | 71° |
| 2026-05-07 22:39 | 30.78125 | -88.95907 | 31504 ft | 352 kts | 71° |
| 2026-05-07 22:39 | 30.78794 | -88.93178 | 31617 ft | 353 kts | 71° |
| 2026-05-07 22:40 | 30.79466 | -88.90429 | 31727 ft | 353 kts | 71° |
| 2026-05-07 22:40 | 30.80138 | -88.87684 | 31907 ft | 351 kts | 71° |
| 2026-05-07 22:40 | 30.80804 | -88.84957 | 32039 ft | 351 kts | 71° |
| 2026-05-07 22:40 | 30.81473 | -88.82217 | 32155 ft | 352 kts | 71° |
| 2026-05-07 22:41 | 30.82139 | -88.79484 | 32262 ft | 352 kts | 71° |
| 2026-05-07 22:41 | 30.82809 | -88.76735 | 32374 ft | 352 kts | 71° |
| 2026-05-07 22:41 | 30.83476 | -88.73993 | 32471 ft | 353 kts | 71° |
| 2026-05-07 22:42 | 30.84810 | -88.68501 | 32754 ft | 348 kts | 71° |
| 2026-05-07 22:42 | 30.85457 | -88.65834 | 33189 ft | 336 kts | 71° |
| 2026-05-07 22:42 | 30.86088 | -88.63238 | 33475 ft | 332 kts | 71° |
| 2026-05-07 22:42 | 30.86711 | -88.60659 | 33648 ft | 332 kts | 71° |
| 2026-05-07 22:43 | 30.87336 | -88.58074 | 33823 ft | 331 kts | 71° |
| 2026-05-07 22:43 | 30.87956 | -88.55514 | 33992 ft | 330 kts | 71° |
| 2026-05-07 22:43 | 30.88575 | -88.52948 | 34120 ft | 331 kts | 71° |
| 2026-05-07 22:43 | 30.89199 | -88.50361 | 34230 ft | 331 kts | 71° |
| 2026-05-07 22:44 | 30.89822 | -88.47774 | 34344 ft | 332 kts | 71° |
| 2026-05-07 22:44 | 30.90435 | -88.45231 | 34448 ft | 333 kts | 71° |
| 2026-05-07 22:44 | 30.91070 | -88.42590 | 34552 ft | 333 kts | 71° |
| 2026-05-07 22:44 | 30.91694 | -88.39993 | 34657 ft | 334 kts | 71° |
| 2026-05-07 22:45 | 30.92364 | -88.37443 | 34796 ft | 331 kts | 65° |
| 2026-05-07 22:45 | 30.93286 | -88.35011 | 34902 ft | 326 kts | 54° |
| 2026-05-07 22:45 | 30.94478 | -88.32729 | 34954 ft | 326 kts | 50° |
| 2026-05-07 22:46 | 30.96744 | -88.28092 | 34987 ft | 335 kts | 53° |
| 2026-05-07 22:46 | 30.99081 | -88.23337 | 34997 ft | 341 kts | 54° |
| 2026-05-07 22:47 | 31.01445 | -88.18512 | 34994 ft | 346 kts | 54° |
| 2026-05-07 22:47 | 31.03832 | -88.13612 | 34995 ft | 348 kts | 54° |
| 2026-05-07 22:48 | 31.06234 | -88.08670 | 34993 ft | 351 kts | 54° |
| 2026-05-07 22:48 | 31.08648 | -88.03706 | 34991 ft | 353 kts | 54° |
| 2026-05-07 22:49 | 31.11067 | -87.98725 | 34994 ft | 354 kts | 54° |
| 2026-05-07 22:49 | 31.13496 | -87.93715 | 34996 ft | 355 kts | 54° |
| 2026-05-07 22:50 | 31.15933 | -87.88682 | 34993 ft | 356 kts | 54° |
| 2026-05-07 22:50 | 31.18371 | -87.83640 | 34995 ft | 357 kts | 54° |
| 2026-05-07 22:51 | 31.20816 | -87.78577 | 34995 ft | 358 kts | 54° |
| 2026-05-07 22:51 | 31.23264 | -87.73501 | 34995 ft | 358 kts | 54° |
| 2026-05-07 22:52 | 31.25709 | -87.68424 | 34995 ft | 358 kts | 54° |
| 2026-05-07 22:52 | 31.28151 | -87.63348 | 34991 ft | 358 kts | 55° |
| 2026-05-07 22:53 | 31.30572 | -87.58304 | 34991 ft | 358 kts | 55° |
| 2026-05-07 22:53 | 31.33341 | -87.53544 | 34996 ft | 354 kts | 50° |
| 2026-05-07 22:54 | 31.36084 | -87.48764 | 34995 ft | 353 kts | 49° |
| 2026-05-07 22:54 | 31.38832 | -87.43983 | 34995 ft | 353 kts | 49° |
| 2026-05-07 22:55 | 31.41579 | -87.39224 | 34997 ft | 353 kts | 49° |
| 2026-05-07 22:55 | 31.44330 | -87.34455 | 35004 ft | 353 kts | 49° |
| 2026-05-07 22:56 | 31.47070 | -87.29703 | 35005 ft | 352 kts | 49° |
| 2026-05-07 22:56 | 31.49805 | -87.24948 | 35009 ft | 352 kts | 49° |
| 2026-05-07 22:57 | 31.52548 | -87.20174 | 35002 ft | 352 kts | 49° |
| 2026-05-07 22:57 | 31.55275 | -87.15421 | 35002 ft | 351 kts | 49° |
| 2026-05-07 22:58 | 31.57998 | -87.10671 | 35000 ft | 351 kts | 49° |
| 2026-05-07 22:58 | 31.60717 | -87.05922 | 34992 ft | 350 kts | 50° |
| 2026-05-07 22:59 | 31.63443 | -87.01156 | 34980 ft | 350 kts | 50° |
| 2026-05-07 22:59 | 31.66145 | -86.96424 | 34965 ft | 350 kts | 50° |
| 2026-05-07 23:00 | 31.68855 | -86.91671 | 34940 ft | 350 kts | 50° |
| 2026-05-07 23:00 | 31.71557 | -86.86929 | 34948 ft | 349 kts | 50° |
| 2026-05-07 23:01 | 31.74254 | -86.82189 | 34961 ft | 349 kts | 50° |
| 2026-05-07 23:01 | 31.76956 | -86.77435 | 34977 ft | 349 kts | 50° |
| 2026-05-07 23:02 | 31.79648 | -86.72692 | 34995 ft | 349 kts | 50° |
| 2026-05-07 23:02 | 31.82334 | -86.67954 | 35009 ft | 348 kts | 50° |
| 2026-05-07 23:03 | 31.85006 | -86.63233 | 35016 ft | 349 kts | 50° |
| 2026-05-07 23:03 | 31.87712 | -86.58450 | 35009 ft | 349 kts | 50° |
| 2026-05-07 23:04 | 31.90399 | -86.53691 | 35012 ft | 349 kts | 50° |
| 2026-05-07 23:04 | 31.93089 | -86.48921 | 34992 ft | 350 kts | 50° |
| 2026-05-07 23:05 | 31.95766 | -86.44169 | 34979 ft | 351 kts | 50° |
| 2026-05-07 23:05 | 31.98462 | -86.39380 | 34968 ft | 351 kts | 50° |
| 2026-05-07 23:06 | 32.01166 | -86.34568 | 34963 ft | 352 kts | 50° |
| 2026-05-07 23:06 | 32.03867 | -86.29755 | 34971 ft | 353 kts | 50° |
| 2026-05-07 23:07 | 32.06572 | -86.24922 | 34987 ft | 353 kts | 51° |
| 2026-05-07 23:07 | 32.09282 | -86.20090 | 34990 ft | 353 kts | 51° |
| 2026-05-07 23:08 | 32.11989 | -86.15248 | 34987 ft | 354 kts | 50° |
| 2026-05-07 23:08 | 32.14702 | -86.10388 | 34985 ft | 354 kts | 50° |
| 2026-05-07 23:09 | 32.17407 | -86.05538 | 34981 ft | 355 kts | 50° |
| 2026-05-07 23:09 | 32.20128 | -86.00653 | 34971 ft | 355 kts | 50° |
| 2026-05-07 23:10 | 32.22842 | -85.95773 | 34971 ft | 356 kts | 50° |
| 2026-05-07 23:10 | 32.25556 | -85.90890 | 34968 ft | 356 kts | 50° |
| 2026-05-07 23:11 | 32.28269 | -85.85998 | 34971 ft | 356 kts | 50° |
| 2026-05-07 23:11 | 32.30986 | -85.81096 | 34970 ft | 357 kts | 50° |
| 2026-05-07 23:12 | 32.33705 | -85.76182 | 34972 ft | 357 kts | 50° |
| 2026-05-07 23:12 | 32.36407 | -85.71293 | 34973 ft | 358 kts | 49° |
| 2026-05-07 23:13 | 32.39132 | -85.66356 | 34980 ft | 358 kts | 49° |
| 2026-05-07 23:13 | 32.41855 | -85.61416 | 34987 ft | 359 kts | 49° |
| 2026-05-07 23:14 | 32.44579 | -85.56468 | 34996 ft | 359 kts | 49° |
| 2026-05-07 23:14 | 32.47307 | -85.51507 | 35000 ft | 359 kts | 49° |
| 2026-05-07 23:15 | 32.50034 | -85.46539 | 35007 ft | 360 kts | 49° |
| 2026-05-07 23:15 | 32.52765 | -85.41560 | 35011 ft | 361 kts | 49° |
| 2026-05-07 23:16 | 32.55504 | -85.36558 | 35012 ft | 362 kts | 49° |
| 2026-05-07 23:16 | 32.58246 | -85.31544 | 35008 ft | 362 kts | 49° |
| 2026-05-07 23:17 | 32.60978 | -85.26542 | 35003 ft | 363 kts | 49° |
| 2026-05-07 23:17 | 32.63727 | -85.21500 | 34995 ft | 363 kts | 49° |
| 2026-05-07 23:18 | 32.66467 | -85.16470 | 34986 ft | 364 kts | 49° |
| 2026-05-07 23:18 | 32.69216 | -85.11417 | 34964 ft | 365 kts | 49° |
| 2026-05-07 23:19 | 32.71970 | -85.06347 | 34989 ft | 366 kts | 49° |
| 2026-05-07 23:19 | 32.74730 | -85.01259 | 34993 ft | 366 kts | 49° |
| 2026-05-07 23:20 | 32.77489 | -84.96165 | 35001 ft | 367 kts | 48° |
| 2026-05-07 23:20 | 32.79787 | -84.91920 | 35000 ft | 368 kts | 48° |
| 2026-05-07 23:21 | 32.82554 | -84.86797 | 35002 ft | 368 kts | 48° |
| 2026-05-07 23:21 | 32.85325 | -84.81664 | 35001 ft | 369 kts | 48° |
| 2026-05-07 23:22 | 32.88096 | -84.76520 | 34999 ft | 369 kts | 48° |
| 2026-05-07 23:22 | 32.90868 | -84.71368 | 34988 ft | 370 kts | 48° |
| 2026-05-07 23:23 | 32.93642 | -84.66209 | 34983 ft | 370 kts | 48° |
| 2026-05-07 23:23 | 32.96418 | -84.61036 | 34976 ft | 371 kts | 48° |
| 2026-05-07 23:24 | 32.99190 | -84.55862 | 34977 ft | 371 kts | 48° |
| 2026-05-07 23:24 | 33.01970 | -84.50667 | 34973 ft | 371 kts | 48° |
| 2026-05-07 23:25 | 33.04741 | -84.45483 | 34981 ft | 372 kts | 48° |
| 2026-05-07 23:25 | 33.07519 | -84.40277 | 34977 ft | 372 kts | 48° |
| 2026-05-07 23:26 | 33.10293 | -84.35071 | 34988 ft | 372 kts | 48° |
| 2026-05-07 23:26 | 33.13051 | -84.29887 | 34980 ft | 373 kts | 48° |
| 2026-05-07 23:27 | 33.17241 | -84.22000 | 34978 ft | 374 kts | 48° |
| 2026-05-07 23:27 | 33.20016 | -84.16767 | 34987 ft | 374 kts | 48° |
| 2026-05-07 23:28 | 33.22780 | -84.11547 | 34983 ft | 374 kts | 48° |
| 2026-05-07 23:28 | 33.25546 | -84.06313 | 34974 ft | 374 kts | 48° |
| 2026-05-07 23:29 | 33.28336 | -84.01031 | 34970 ft | 374 kts | 48° |
| 2026-05-07 23:29 | 33.31114 | -83.95761 | 34956 ft | 375 kts | 48° |
| 2026-05-07 23:30 | 33.33895 | -83.90480 | 34955 ft | 375 kts | 48° |
| 2026-05-07 23:30 | 33.36673 | -83.85194 | 34955 ft | 376 kts | 48° |
| 2026-05-07 23:31 | 33.39457 | -83.79890 | 34959 ft | 376 kts | 48° |
| 2026-05-07 23:31 | 33.42240 | -83.74582 | 34958 ft | 376 kts | 48° |
| 2026-05-07 23:32 | 33.45020 | -83.69272 | 34961 ft | 376 kts | 48° |
| 2026-05-07 23:32 | 33.47801 | -83.63951 | 34958 ft | 377 kts | 48° |
| 2026-05-07 23:33 | 33.50585 | -83.58616 | 34952 ft | 377 kts | 48° |
| 2026-05-07 23:33 | 33.53367 | -83.53283 | 34988 ft | 381 kts | 48° |
| 2026-05-07 23:34 | 33.56170 | -83.47890 | 34954 ft | 386 kts | 49° |
| 2026-05-07 23:34 | 33.59023 | -83.42398 | 34951 ft | 389 kts | 49° |
| 2026-05-07 23:35 | 33.61895 | -83.36864 | 34954 ft | 391 kts | 49° |
| 2026-05-07 23:35 | 33.64768 | -83.31319 | 34958 ft | 392 kts | 49° |
| 2026-05-07 23:36 | 33.67652 | -83.25742 | 34961 ft | 394 kts | 49° |
| 2026-05-07 23:36 | 33.70548 | -83.20133 | 34962 ft | 396 kts | 49° |
| 2026-05-07 23:37 | 33.73448 | -83.14511 | 34956 ft | 398 kts | 49° |
| 2026-05-07 23:37 | 33.76366 | -83.08842 | 34953 ft | 399 kts | 49° |
| 2026-05-07 23:38 | 33.79288 | -83.03159 | 34939 ft | 400 kts | 49° |
| 2026-05-07 23:38 | 33.82209 | -82.97466 | 34942 ft | 400 kts | 49° |
| 2026-05-07 23:39 | 33.85128 | -82.91769 | 34945 ft | 401 kts | 49° |
| 2026-05-07 23:39 | 33.88059 | -82.86063 | 34947 ft | 398 kts | 46° |
| 2026-05-07 23:40 | 33.91043 | -82.80428 | 34944 ft | 399 kts | 47° |
| 2026-05-07 23:40 | 33.94035 | -82.74778 | 34936 ft | 400 kts | 48° |
| 2026-05-07 23:41 | 33.97022 | -82.69135 | 34929 ft | 400 kts | 48° |
| 2026-05-07 23:41 | 34.00009 | -82.63474 | 34935 ft | 400 kts | 48° |
| 2026-05-07 23:42 | 34.02991 | -82.57808 | 34933 ft | 400 kts | 48° |
| 2026-05-07 23:42 | 34.05972 | -82.52133 | 34920 ft | 400 kts | 48° |
| 2026-05-07 23:43 | 34.08926 | -82.46504 | 34920 ft | 400 kts | 48° |
| 2026-05-07 23:43 | 34.11900 | -82.40829 | 34912 ft | 400 kts | 48° |
| 2026-05-07 23:44 | 34.14871 | -82.35149 | 34916 ft | 400 kts | 47° |
| 2026-05-07 23:44 | 34.17831 | -82.29481 | 34916 ft | 400 kts | 47° |
| 2026-05-07 23:45 | 34.20801 | -82.23785 | 34918 ft | 399 kts | 47° |
| 2026-05-07 23:45 | 34.23760 | -82.18107 | 34919 ft | 399 kts | 47° |
| 2026-05-07 23:46 | 34.26669 | -82.12376 | 34917 ft | 400 kts | 48° |
| 2026-05-07 23:46 | 34.29574 | -82.06631 | 34918 ft | 401 kts | 49° |
| 2026-05-07 23:47 | 34.32473 | -82.00884 | 34914 ft | 401 kts | 49° |
| 2026-05-07 23:47 | 34.35367 | -81.95124 | 34903 ft | 401 kts | 49° |
| 2026-05-07 23:48 | 34.35976 | -81.93903 | 34902 ft | 401 kts | 49° |
| 2026-05-07 23:48 | 34.37337 | -81.91186 | 34906 ft | 400 kts | 49° |
| 2026-05-07 23:49 | 34.38812 | -81.88247 | 34907 ft | 400 kts | 49° |
| 2026-05-07 23:49 | 34.41677 | -81.82518 | 34904 ft | 400 kts | 48° |
| 2026-05-07 23:50 | 34.44563 | -81.76738 | 34899 ft | 400 kts | 48° |
| 2026-05-07 23:50 | 34.47461 | -81.70927 | 34909 ft | 400 kts | 48° |
| 2026-05-07 23:51 | 34.50315 | -81.65194 | 34904 ft | 400 kts | 48° |
| 2026-05-07 23:51 | 34.53190 | -81.59408 | 34896 ft | 400 kts | 48° |
| 2026-05-07 23:52 | 34.56058 | -81.53628 | 34883 ft | 400 kts | 48° |
| 2026-05-07 23:52 | 34.58928 | -81.47834 | 34872 ft | 400 kts | 48° |
| 2026-05-07 23:53 | 34.61789 | -81.42048 | 34872 ft | 400 kts | 48° |
| 2026-05-07 23:53 | 34.64650 | -81.36257 | 34875 ft | 400 kts | 49° |
| 2026-05-07 23:54 | 34.67513 | -81.30449 | 34887 ft | 400 kts | 49° |
| 2026-05-07 23:54 | 34.70368 | -81.24645 | 34889 ft | 400 kts | 48° |
| 2026-05-07 23:55 | 34.73215 | -81.18850 | 34889 ft | 400 kts | 48° |
| 2026-05-07 23:55 | 34.76067 | -81.13035 | 34891 ft | 400 kts | 48° |
| 2026-05-07 23:56 | 34.78912 | -81.07214 | 34896 ft | 401 kts | 49° |
| 2026-05-07 23:56 | 34.81379 | -81.01116 | 34887 ft | 410 kts | 60° |
| 2026-05-07 23:57 | 34.83719 | -80.94829 | 35227 ft | 393 kts | 56° |
| 2026-05-07 23:57 | 34.84811 | -80.91761 | 35104 ft | 402 kts | 58° |
| 2026-05-07 23:57 | 34.85967 | -80.88639 | 34980 ft | 405 kts | 56° |
| 2026-05-07 23:58 | 34.88288 | -80.82324 | 34889 ft | 410 kts | 56° |
| 2026-05-07 23:58 | 34.90628 | -80.75961 | 34903 ft | 412 kts | 57° |
| 2026-05-07 23:59 | 34.92966 | -80.69607 | 34618 ft | 423 kts | 58° |
| 2026-05-07 23:59 | 34.94186 | -80.66265 | 34428 ft | 426 kts | 58° |
| 2026-05-07 23:59 | 34.95372 | -80.63025 | 34133 ft | 424 kts | 57° |
| 2026-05-08 00:00 | 34.96577 | -80.59731 | 33555 ft | 426 kts | 57° |
| 2026-05-08 00:00 | 34.97782 | -80.56430 | 32991 ft | 427 kts | 58° |
| 2026-05-08 00:00 | 34.99004 | -80.53078 | 32365 ft | 429 kts | 58° |
| 2026-05-08 00:00 | 35.00218 | -80.49746 | 31786 ft | 430 kts | 58° |
| 2026-05-08 00:01 | 35.01415 | -80.46453 | 31206 ft | 431 kts | 58° |
| 2026-05-08 00:01 | 35.02650 | -80.43057 | 30609 ft | 432 kts | 58° |
| 2026-05-08 00:01 | 35.03868 | -80.39700 | 30002 ft | 434 kts | 59° |
| 2026-05-08 00:01 | 35.05072 | -80.36381 | 29341 ft | 434 kts | 59° |
| 2026-05-08 00:02 | 35.06296 | -80.33001 | 28627 ft | 435 kts | 59° |
| 2026-05-08 00:02 | 35.07517 | -80.29630 | 27953 ft | 435 kts | 59° |
| 2026-05-08 00:02 | 35.08731 | -80.26267 | 27284 ft | 434 kts | 59° |
| 2026-05-08 00:02 | 35.09954 | -80.22885 | 26610 ft | 434 kts | 59° |
| 2026-05-08 00:03 | 35.11169 | -80.19516 | 26021 ft | 433 kts | 60° |
| 2026-05-08 00:03 | 35.12379 | -80.16156 | 25411 ft | 432 kts | 60° |
| 2026-05-08 00:03 | 35.13582 | -80.12815 | 24786 ft | 431 kts | 60° |
| 2026-05-08 00:03 | 35.14796 | -80.09442 | 24135 ft | 431 kts | 60° |
| 2026-05-08 00:04 | 35.15995 | -80.06101 | 23504 ft | 429 kts | 61° |
| 2026-05-08 00:04 | 35.17190 | -80.02765 | 22688 ft | 428 kts | 61° |
| 2026-05-08 00:04 | 35.18185 | -79.99326 | 21934 ft | 431 kts | 69° |
| 2026-05-08 00:04 | 35.18977 | -79.95776 | 21217 ft | 431 kts | 76° |
| 2026-05-08 00:05 | 35.19402 | -79.92174 | 20616 ft | 428 kts | 83° |
| 2026-05-08 00:05 | 35.19770 | -79.88584 | 20047 ft | 422 kts | 78° |
| 2026-05-08 00:05 | 35.20252 | -79.85113 | 19510 ft | 418 kts | 81° |
| 2026-05-08 00:05 | 35.20655 | -79.81566 | 19055 ft | 413 kts | 78° |
| 2026-05-08 00:06 | 35.21108 | -79.78119 | 18608 ft | 409 kts | 80° |
| 2026-05-08 00:06 | 35.21508 | -79.74705 | 18177 ft | 405 kts | 79° |
| 2026-05-08 00:06 | 35.21794 | -79.72463 | 17871 ft | 401 kts | 79° |
| 2026-05-08 00:06 | 35.22206 | -79.69113 | 17443 ft | 395 kts | 80° |
| 2026-05-08 00:07 | 35.22739 | -79.64750 | 16923 ft | 387 kts | 79° |
| 2026-05-08 00:07 | 35.23009 | -79.62562 | 16645 ft | 383 kts | 80° |
| 2026-05-08 00:07 | 35.23394 | -79.59360 | 16243 ft | 378 kts | 80° |
| 2026-05-08 00:07 | 35.23905 | -79.55188 | 15723 ft | 371 kts | 80° |
| 2026-05-08 00:08 | 35.24159 | -79.53090 | 15468 ft | 367 kts | 81° |
| 2026-05-08 00:08 | 35.24530 | -79.50020 | 15080 ft | 363 kts | 81° |
| 2026-05-08 00:08 | 35.24898 | -79.46980 | 14718 ft | 358 kts | 81° |
| 2026-05-08 00:08 | 35.25260 | -79.43980 | 14344 ft | 354 kts | 81° |
| 2026-05-08 00:09 | 35.25611 | -79.41063 | 13998 ft | 350 kts | 81° |
| 2026-05-08 00:09 | 35.25967 | -79.38099 | 13652 ft | 345 kts | 81° |
| 2026-05-08 00:09 | 35.26314 | -79.35210 | 13224 ft | 342 kts | 81° |
| 2026-05-08 00:09 | 35.26655 | -79.32348 | 12811 ft | 339 kts | 81° |
| 2026-05-08 00:10 | 35.26996 | -79.29502 | 12416 ft | 337 kts | 81° |
| 2026-05-08 00:10 | 35.27327 | -79.26722 | 12033 ft | 334 kts | 81° |
| 2026-05-08 00:10 | 35.27661 | -79.23915 | 11659 ft | 331 kts | 81° |
| 2026-05-08 00:10 | 35.27988 | -79.21154 | 11390 ft | 326 kts | 82° |
| 2026-05-08 00:11 | 35.28313 | -79.18416 | 11103 ft | 323 kts | 81° |
| 2026-05-08 00:11 | 35.28631 | -79.15730 | 10904 ft | 317 kts | 82° |
| 2026-05-08 00:11 | 35.28944 | -79.13070 | 10672 ft | 315 kts | 82° |
| 2026-05-08 00:11 | 35.29254 | -79.10436 | 10530 ft | 310 kts | 82° |
| 2026-05-08 00:12 | 35.29560 | -79.07840 | 10302 ft | 307 kts | 82° |
| 2026-05-08 00:12 | 35.29861 | -79.05268 | 10081 ft | 304 kts | 82° |
| 2026-05-08 00:12 | 35.30159 | -79.02727 | 9932 ft | 299 kts | 82° |
| 2026-05-08 00:12 | 35.30456 | -79.00184 | 9586 ft | 302 kts | 82° |
| 2026-05-08 00:13 | 35.30751 | -78.97654 | 9351 ft | 300 kts | 82° |
| 2026-05-08 00:13 | 35.31044 | -78.95138 | 9135 ft | 297 kts | 82° |
| 2026-05-08 00:13 | 35.31336 | -78.92630 | 8921 ft | 296 kts | 82° |
| 2026-05-08 00:13 | 35.31623 | -78.90147 | 8709 ft | 295 kts | 82° |
| 2026-05-08 00:14 | 35.31911 | -78.87669 | 8504 ft | 293 kts | 82° |
| 2026-05-08 00:14 | 35.32197 | -78.85195 | 8297 ft | 292 kts | 82° |
| 2026-05-08 00:14 | 35.32480 | -78.82735 | 8096 ft | 291 kts | 82° |
| 2026-05-08 00:14 | 35.32764 | -78.80283 | 7911 ft | 290 kts | 82° |
| 2026-05-08 00:15 | 35.33043 | -78.77849 | 7716 ft | 289 kts | 82° |
| 2026-05-08 00:15 | 35.33321 | -78.75422 | 7528 ft | 288 kts | 82° |
| 2026-05-08 00:15 | 35.33601 | -78.72992 | 7348 ft | 287 kts | 82° |
| 2026-05-08 00:15 | 35.33875 | -78.70584 | 7179 ft | 286 kts | 82° |
| 2026-05-08 00:16 | 35.34150 | -78.68175 | 7003 ft | 285 kts | 82° |
| 2026-05-08 00:16 | 35.34422 | -78.65780 | 6831 ft | 283 kts | 82° |
| 2026-05-08 00:16 | 35.34694 | -78.63394 | 6658 ft | 283 kts | 82° |
| 2026-05-08 00:16 | 35.34965 | -78.61016 | 6384 ft | 281 kts | 82° |
| 2026-05-08 00:17 | 35.35230 | -78.58656 | 6016 ft | 278 kts | 81° |
| 2026-05-08 00:17 | 35.35496 | -78.56327 | 5685 ft | 275 kts | 81° |
| 2026-05-08 00:17 | 35.35755 | -78.54022 | 5345 ft | 271 kts | 82° |
| 2026-05-08 00:17 | 35.36011 | -78.51749 | 5026 ft | 268 kts | 81° |
| 2026-05-08 00:18 | 35.36459 | -78.49578 | 4562 ft | 260 kts | 61° |
| 2026-05-08 00:18 | 35.37585 | -78.47936 | 4047 ft | 246 kts | 33° |
| 2026-05-08 00:18 | 35.39025 | -78.46924 | 3554 ft | 235 kts | 19° |
| 2026-05-08 00:18 | 35.40516 | -78.46184 | 3078 ft | 227 kts | 19° |
| 2026-05-08 00:19 | 35.41963 | -78.45499 | 2640 ft | 219 kts | 20° |
| 2026-05-08 00:19 | 35.43299 | -78.44798 | 2299 ft | 208 kts | 24° |
| 2026-05-08 00:19 | 35.44617 | -78.44049 | 2026 ft | 202 kts | 24° |
| 2026-05-08 00:19 | 35.45882 | -78.43390 | 1798 ft | 192 kts | 23° |
| 2026-05-08 00:20 | 35.46953 | -78.42838 | 1546 ft | 150 kts | 24° |
| 2026-05-08 00:20 | 35.47800 | -78.42380 | 1367 ft | 119 kts | 24° |
| 2026-05-08 00:20 | 35.48496 | -78.42003 | 1223 ft | 100 kts | 24° |
| 2026-05-08 00:20 | 35.49086 | -78.41689 | 1104 ft | 85 kts | 24° |
| 2026-05-08 00:21 | 35.49593 | -78.41424 | 986 ft | 74 kts | 23° |
| 2026-05-08 00:21 | 35.50215 | -78.41129 | 687 ft | 111 kts | 24° |
| 2026-05-08 00:21 | 35.50954 | -78.40709 | 659 ft | 121 kts | 26° |
| 2026-05-08 00:21 | 35.51738 | -78.40267 | 536 ft | 121 kts | 26° |
| 2026-05-08 00:22 | 35.52443 | -78.39880 | 420 ft | 104 kts | 24° |
| 2026-05-08 00:22 | 35.53095 | -78.39550 | 248 ft | 95 kts | 24° |
| 2026-05-08 00:22 | 35.53667 | -78.39262 | 157 ft | 85 kts | 22° |
| 2026-05-08 00:22 | 35.53952 | -78.39112 | 160 ft | 6 kts | 24° |
| 2026-05-08 00:23 | 35.54070 | -78.39183 | 160 ft | 26 kts | 286° |
| 2026-05-08 00:23 | 35.54103 | -78.39285 | 161 ft | 0 kts | 287° |